createdAt,value
2017-04-10T00:00:37.401Z,0
2017-04-10T00:01:17.764Z,0
2017-04-10T00:01:58.190Z,0
2017-04-10T00:02:38.560Z,0
2017-04-10T00:03:19.629Z,0
2017-04-10T00:04:00.020Z,0
2017-04-10T00:04:40.457Z,0
2017-04-10T00:05:21.383Z,0
2017-04-10T00:06:01.815Z,0
2017-04-10T00:06:42.211Z,0
2017-04-10T00:07:22.631Z,0
2017-04-10T00:08:03.084Z,0
2017-04-10T00:08:43.446Z,0
2017-04-10T00:09:24.696Z,0
2017-04-10T00:10:05.126Z,0
2017-04-10T00:10:45.542Z,0
2017-04-10T00:11:25.923Z,0
2017-04-10T00:12:06.336Z,0
2017-04-10T00:12:47.551Z,0
2017-04-10T00:13:27.995Z,0
2017-04-10T00:14:08.378Z,0
2017-04-10T00:14:48.800Z,0
2017-04-10T00:15:29.212Z,0
2017-04-10T04:15:00.372Z,0
2017-04-10T04:15:40.787Z,0
2017-04-10T04:16:21.254Z,0
2017-04-10T04:17:02.518Z,0
2017-04-10T04:17:44.685Z,0
2017-04-10T04:18:25.116Z,0
2017-04-10T04:19:06.345Z,0
2017-04-10T04:19:47.508Z,0
2017-04-10T04:20:27.970Z,0
2017-04-10T04:21:08.434Z,0
2017-04-10T04:21:50.545Z,0
2017-04-10T04:22:30.962Z,0
2017-04-10T04:23:12.170Z,0
2017-04-10T04:23:52.605Z,0
2017-04-10T04:24:33.623Z,0
2017-04-10T04:25:14.712Z,0
2017-04-10T04:25:55.059Z,0
2017-04-10T04:26:36.104Z,0
2017-04-10T04:27:17.036Z,0
2017-04-10T04:28:02.047Z,0
2017-04-10T04:28:43.364Z,0
2017-04-10T04:29:23.747Z,0
2017-04-10T04:30:04.159Z,0
2017-04-10T04:30:47.034Z,0
2017-04-10T04:31:27.425Z,0
2017-04-10T04:32:10.587Z,0
2017-04-10T04:32:51.073Z,0
2017-04-10T04:33:31.493Z,5
2017-04-10T04:34:11.908Z,5
2017-04-10T04:34:52.857Z,5
2017-04-10T04:35:33.553Z,5
2017-04-10T10:47:36.668Z,3470
2017-04-10T10:48:17.100Z,3480
2017-04-10T10:48:57.501Z,3780
2017-04-10T10:49:37.957Z,4010
2017-04-10T10:50:18.455Z,4295
2017-04-10T10:50:59.484Z,4315
2017-04-10T10:51:42.759Z,4830
2017-04-10T10:52:25.251Z,5070
2017-04-10T10:53:08.339Z,4960
2017-04-10T10:53:48.797Z,4705
2017-04-10T10:54:29.436Z,4335
2017-04-10T10:55:10.739Z,3740
2017-04-10T10:55:51.422Z,3815
2017-04-10T10:56:32.557Z,4055
2017-04-10T10:57:16.253Z,4230
2017-04-10T10:58:00.668Z,4175
2017-04-10T10:58:57.035Z,4565
2017-04-10T10:59:38.754Z,4500
2017-04-10T11:00:23.793Z,4450
2017-04-10T11:01:05.377Z,5095
2017-04-10T11:03:34.629Z,5035
2017-04-10T11:04:15.872Z,4390
2017-04-10T11:04:57.013Z,4695
2017-04-10T11:05:42.200Z,4440
2017-04-10T11:06:29.616Z,4700
2017-04-10T11:08:58.382Z,4500
2017-04-10T11:09:44.380Z,4545
2017-04-10T14:16:19.742Z,740
2017-04-10T14:36:51.032Z,500
2017-04-10T14:37:31.501Z,510
2017-04-10T14:38:11.898Z,545
2017-04-10T14:38:52.334Z,560
2017-04-10T14:39:33.626Z,575
2017-04-10T14:40:14.967Z,585
2017-04-10T16:17:51.312Z,235
2017-04-10T16:18:31.664Z,220
2017-04-10T16:19:12.113Z,210
2017-04-10T16:19:52.549Z,205
2017-04-10T16:20:32.933Z,205
2017-04-10T16:21:13.488Z,210
2017-04-10T16:21:53.927Z,205
2017-04-10T16:22:34.506Z,195
2017-04-10T16:23:14.881Z,180
2017-04-10T16:23:55.342Z,170
2017-04-10T16:24:35.938Z,165
2017-04-10T16:25:16.502Z,155
2017-04-10T16:25:57.139Z,155
2017-04-10T16:26:37.547Z,155
2017-04-10T16:27:18.122Z,150
2017-04-10T16:27:58.495Z,145
2017-04-10T16:28:38.960Z,140
2017-04-10T16:29:19.567Z,140
2017-04-10T16:29:59.928Z,140
2017-04-10T16:30:40.461Z,140
2017-04-10T16:31:20.842Z,140
2017-04-10T16:32:01.869Z,145
2017-04-10T16:32:42.506Z,150
2017-04-10T16:33:23.156Z,155
2017-04-10T16:34:03.554Z,160
2017-04-10T16:34:44.244Z,160
2017-04-10T16:35:24.750Z,155
2017-04-10T16:36:05.295Z,150
2017-04-10T16:36:45.849Z,140
2017-04-10T16:37:26.302Z,140
2017-04-10T16:38:06.711Z,135
2017-04-10T16:38:47.228Z,135
2017-04-10T16:39:27.571Z,130
2017-04-10T16:40:07.988Z,120
2017-04-10T16:40:48.422Z,115
2017-04-10T16:41:28.849Z,110
2017-04-10T16:42:10.081Z,105
2017-04-10T16:42:50.467Z,110
2017-04-10T16:43:30.924Z,115
2017-04-10T16:44:12.984Z,125
2017-04-10T16:44:54.326Z,130
2017-04-10T16:45:34.778Z,135
2017-04-10T16:46:15.175Z,130
2017-04-10T16:46:55.608Z,130
2017-04-10T16:47:36.045Z,125
2017-04-10T16:48:16.982Z,120
2017-04-10T16:48:57.478Z,120
2017-04-10T16:49:39.575Z,115
2017-04-10T16:50:20.017Z,105
2017-04-10T16:51:00.470Z,100
2017-04-10T16:51:41.550Z,95
2017-04-10T16:52:24.675Z,95
2017-04-10T16:53:05.076Z,90
2017-04-10T16:55:19.282Z,70
2017-04-10T16:55:59.717Z,70
2017-04-10T16:56:40.123Z,70
2017-04-10T16:58:56.043Z,65
2017-04-10T16:59:38.050Z,65
2017-04-10T17:00:18.514Z,65
2017-04-10T17:00:59.903Z,70
2017-04-10T17:01:40.401Z,75
2017-04-10T17:02:20.889Z,80
2017-04-10T17:03:01.314Z,85
2017-04-10T17:03:41.726Z,85
2017-04-10T17:04:22.214Z,80
2017-04-10T17:06:41.418Z,95
2017-04-10T17:08:54.308Z,110
2017-04-10T17:09:34.820Z,110
2017-04-10T17:10:16.171Z,100
2017-04-10T17:12:34.922Z,85
2017-04-10T17:13:15.418Z,75
2017-04-10T17:13:56.480Z,65
2017-04-10T17:14:36.968Z,65
2017-04-10T17:15:17.483Z,65
2017-04-10T17:15:57.903Z,75
2017-04-10T17:16:38.272Z,80
2017-04-10T17:17:18.673Z,85
2017-04-10T17:18:00.594Z,90
2017-04-10T17:18:42.019Z,95
2017-04-10T17:19:23.849Z,95
2017-04-10T17:20:05.064Z,95
2017-04-10T17:20:45.599Z,90
2017-04-10T17:21:26.843Z,90
2017-04-10T17:22:07.267Z,85
2017-04-10T17:22:47.652Z,85
2017-04-10T17:23:28.078Z,85
2017-04-10T17:24:08.502Z,90
2017-04-10T17:24:49.572Z,90
2017-04-10T17:25:30.846Z,90
2017-04-10T17:26:11.247Z,85
2017-04-10T17:26:54.596Z,85
2017-04-10T17:27:34.993Z,80
2017-04-10T17:28:17.027Z,80
2017-04-10T17:28:57.441Z,75
2017-04-10T17:29:38.663Z,75
2017-04-10T17:30:19.098Z,80
2017-04-10T17:30:59.534Z,80
2017-04-10T17:31:39.942Z,80
2017-04-10T17:32:21.213Z,80
2017-04-10T17:34:53.761Z,75
2017-04-10T17:35:34.202Z,75
2017-04-10T17:36:14.621Z,75
2017-04-10T17:36:55.052Z,70
2017-04-10T17:37:36.317Z,70
2017-04-10T17:38:16.670Z,70
2017-04-10T17:38:57.980Z,70
2017-04-10T17:39:38.329Z,65
2017-04-10T17:41:51.801Z,60
2017-04-10T17:42:32.345Z,60
2017-04-10T17:43:15.535Z,60
2017-04-10T17:43:55.993Z,55
2017-04-10T17:44:36.416Z,55
2017-04-10T17:45:16.823Z,55
2017-04-10T17:45:57.337Z,55
2017-04-10T17:46:37.718Z,55
2017-04-10T17:47:18.898Z,55
2017-04-10T17:47:59.368Z,50
2017-04-10T17:48:40.781Z,50
2017-04-10T17:49:21.190Z,45
2017-04-10T17:50:03.626Z,40
2017-04-10T17:50:44.003Z,40
2017-04-10T17:51:24.392Z,35
2017-04-10T17:52:04.791Z,35
2017-04-10T17:52:47.972Z,30
2017-04-10T17:53:30.172Z,30
2017-04-10T17:54:11.289Z,25
2017-04-10T17:54:51.685Z,25
2017-04-10T17:55:32.144Z,25
2017-04-10T17:56:12.534Z,25
2017-04-10T17:56:53.022Z,20
2017-04-10T17:57:34.520Z,20
2017-04-10T17:58:15.010Z,20
2017-04-10T17:58:55.485Z,15
2017-04-10T17:59:36.914Z,15
2017-04-10T18:00:17.338Z,15
2017-04-10T18:00:58.631Z,15
2017-04-10T18:01:39.818Z,15
2017-04-10T18:02:20.339Z,10
2017-04-10T18:03:02.355Z,10
2017-04-10T18:03:46.826Z,10
2017-04-10T18:04:27.955Z,10
2017-04-10T18:05:08.542Z,10
2017-04-10T18:05:49.033Z,10
2017-04-10T18:06:29.424Z,10
2017-04-10T18:07:10.449Z,10
2017-04-10T18:07:51.040Z,10
2017-04-10T18:08:31.530Z,10
2017-04-10T18:10:49.723Z,10
2017-04-10T18:11:30.047Z,5
2017-04-10T18:12:10.466Z,5
2017-04-10T18:12:51.670Z,5
2017-04-10T18:13:32.085Z,5
2017-04-10T18:14:14.051Z,5
2017-04-10T18:14:55.317Z,5
2017-04-10T18:15:35.795Z,5
2017-04-10T18:16:16.921Z,5
2017-04-10T18:16:57.390Z,5
2017-04-10T18:17:38.315Z,0
2017-04-10T18:18:18.716Z,0
2017-04-10T18:19:00.496Z,0
2017-04-10T18:19:40.936Z,0
2017-04-10T18:21:57.034Z,0
2017-04-10T18:22:40.060Z,0
2017-04-10T18:23:21.353Z,0
2017-04-10T18:24:01.775Z,0
2017-04-10T18:26:17.621Z,0
2017-04-10T18:26:58.702Z,0
2017-04-10T18:27:39.332Z,0
2017-04-10T18:28:20.918Z,0
2017-04-10T18:29:01.220Z,0
2017-04-10T18:29:41.636Z,0
2017-04-10T18:30:22.131Z,0
2017-04-10T18:31:02.549Z,0
2017-04-10T18:31:42.963Z,0
2017-04-10T18:32:23.439Z,0
2017-04-10T18:33:04.014Z,0
2017-04-10T18:33:44.412Z,0
2017-04-10T18:35:59.944Z,0
2017-04-10T18:36:43.328Z,0
2017-04-10T18:37:23.741Z,0
2017-04-10T18:38:04.414Z,0
2017-04-10T18:38:44.808Z,0
2017-04-10T18:40:57.464Z,0
2017-04-10T18:41:42.528Z,0
2017-04-10T18:43:57.481Z,0
2017-04-10T18:44:38.204Z,0
2017-04-10T18:45:21.554Z,0
2017-04-10T18:46:01.962Z,0
2017-04-10T18:46:43.297Z,0
2017-04-10T18:47:23.735Z,0
2017-04-10T18:48:04.274Z,0
2017-04-10T18:48:45.597Z,0
2017-04-10T18:49:26.095Z,0
2017-04-10T18:50:06.485Z,0
2017-04-10T18:50:50.648Z,0
2017-04-10T18:51:31.467Z,0
2017-04-10T18:52:11.895Z,0
2017-04-10T18:52:52.333Z,0
2017-04-10T18:53:34.040Z,0
2017-04-10T18:54:14.875Z,0
2017-04-10T18:54:55.293Z,0
2017-04-10T18:55:36.589Z,0
2017-04-10T18:56:18.645Z,0
2017-04-10T18:56:59.198Z,0
2017-04-10T18:57:39.806Z,0
2017-04-10T18:58:20.272Z,0
2017-04-10T18:59:00.674Z,0
2017-04-10T18:59:41.101Z,0
2017-04-10T19:00:21.527Z,0
2017-04-10T19:01:02.110Z,0
2017-04-10T19:01:42.567Z,0
2017-04-10T19:02:23.069Z,0
2017-04-10T19:03:04.300Z,0
2017-04-10T19:03:45.554Z,0
2017-04-10T19:04:26.061Z,0
2017-04-10T19:05:06.563Z,0
2017-04-10T19:05:47.004Z,0
2017-04-10T19:06:27.525Z,0
2017-04-10T19:07:07.895Z,0
2017-04-10T19:07:49.001Z,0
2017-04-10T19:08:31.139Z,0
2017-04-10T19:09:11.606Z,0
2017-04-10T19:09:52.642Z,0
2017-04-10T19:10:34.790Z,0
2017-04-10T19:11:16.078Z,0
2017-04-10T19:11:56.637Z,0
2017-04-10T19:12:37.034Z,0
2017-04-10T19:13:17.492Z,0
2017-04-10T19:13:57.880Z,0
2017-04-10T19:14:38.468Z,0
2017-04-10T19:15:20.035Z,0
2017-04-10T19:16:00.395Z,0
2017-04-10T19:16:40.825Z,0
2017-04-10T19:17:23.077Z,0
2017-04-10T19:19:57.687Z,0
2017-04-10T19:20:39.082Z,0
2017-04-10T19:21:19.744Z,0
2017-04-10T19:22:00.121Z,0
2017-04-10T19:24:35.648Z,0
2017-04-10T19:25:16.499Z,0
2017-04-10T19:25:58.664Z,0
2017-04-10T19:26:39.179Z,0
2017-04-10T19:27:19.703Z,0
2017-04-10T19:28:00.226Z,0
2017-04-10T19:28:40.706Z,0
2017-04-10T19:29:21.163Z,0
2017-04-10T19:30:01.981Z,0
2017-04-10T19:30:44.493Z,0
2017-04-10T19:33:26.114Z,0
2017-04-10T19:34:06.546Z,0
2017-04-10T19:34:47.069Z,0
2017-04-10T19:35:27.475Z,0
2017-04-10T19:36:08.891Z,0
2017-04-10T19:36:50.104Z,0
2017-04-10T19:37:31.010Z,0
2017-04-10T19:38:11.516Z,0
2017-04-10T19:38:53.277Z,0
2017-04-10T19:39:33.690Z,0
2017-04-10T19:41:47.176Z,0
2017-04-10T19:42:27.665Z,0
2017-04-10T19:43:08.688Z,0
2017-04-10T19:43:49.086Z,0
2017-04-10T19:44:29.571Z,0
2017-04-10T19:47:08.066Z,0
2017-04-10T19:47:49.338Z,0
2017-04-10T19:48:30.883Z,0
2017-04-10T19:49:11.497Z,0
2017-04-10T19:49:51.682Z,0
2017-04-10T19:50:32.128Z,0
2017-04-10T19:51:12.521Z,0
2017-04-10T19:51:53.022Z,0
2017-04-10T19:52:34.295Z,0
2017-04-10T19:53:14.817Z,0
2017-04-10T19:53:55.409Z,0
2017-04-10T19:54:35.953Z,0
2017-04-10T19:55:17.228Z,0
2017-04-10T19:55:58.138Z,0
2017-04-10T19:56:38.693Z,0
2017-04-10T19:57:19.159Z,0
2017-04-10T19:57:59.634Z,0
2017-04-10T19:58:40.092Z,0
2017-04-10T19:59:21.024Z,0
2017-04-10T20:00:04.061Z,0
2017-04-10T20:00:45.330Z,0
2017-04-10T20:01:25.753Z,0
2017-04-10T20:02:07.232Z,0
2017-04-10T20:02:47.939Z,0
2017-04-10T20:03:29.407Z,0
2017-04-10T20:04:09.529Z,0
2017-04-10T20:04:49.960Z,0
2017-04-10T20:05:30.409Z,0
2017-04-10T20:06:12.527Z,0
2017-04-10T20:06:52.920Z,0
2017-04-10T20:07:33.409Z,0
2017-04-10T20:08:14.963Z,0
2017-04-10T20:08:56.044Z,0
2017-04-10T20:09:37.215Z,0
2017-04-10T20:10:17.670Z,0
2017-04-10T20:10:58.209Z,0
2017-04-10T20:11:41.143Z,0
2017-04-10T20:12:22.330Z,0
2017-04-10T20:13:02.859Z,0
2017-04-10T20:13:44.013Z,0
2017-04-10T20:14:24.405Z,0
2017-04-10T20:15:04.883Z,0
2017-04-10T20:15:46.365Z,0
2017-04-10T20:16:27.635Z,0
2017-04-10T20:17:08.060Z,0
2017-04-10T20:17:49.141Z,0
2017-04-10T20:18:30.579Z,0
2017-04-10T20:19:11.034Z,0
2017-04-10T20:19:52.329Z,0
2017-04-10T20:20:32.830Z,0
2017-04-10T20:21:13.238Z,0
2017-04-10T20:21:53.665Z,0
2017-04-10T20:22:34.111Z,0
2017-04-10T20:23:14.545Z,0
2017-04-10T20:23:55.789Z,0
2017-04-10T20:24:37.160Z,0
2017-04-10T20:25:17.581Z,0
2017-04-10T20:25:58.136Z,0
2017-04-10T20:26:40.920Z,0
2017-04-10T20:27:21.199Z,0
2017-04-10T20:28:03.969Z,0
2017-04-10T20:28:45.478Z,0
2017-04-10T20:29:25.909Z,0
2017-04-10T20:30:06.987Z,0
2017-04-10T20:30:48.766Z,0
2017-04-10T20:33:18.927Z,0
2017-04-10T20:33:59.525Z,0
2017-04-10T20:34:40.032Z,0
2017-04-10T20:35:20.697Z,0
2017-04-10T20:36:01.685Z,0
2017-04-10T20:36:42.097Z,0
2017-04-10T20:37:22.761Z,0
2017-04-10T20:38:03.159Z,0
2017-04-10T20:38:43.507Z,0
2017-04-10T20:39:23.941Z,0
2017-04-10T20:40:07.069Z,0
2017-04-10T20:40:47.460Z,0
2017-04-10T20:41:27.882Z,0
2017-04-10T20:42:08.282Z,0
2017-04-10T20:42:48.810Z,0
2017-04-10T20:43:29.181Z,0
2017-04-10T20:44:09.704Z,0
2017-04-10T20:44:50.687Z,0
2017-04-10T20:45:31.270Z,0
2017-04-10T20:46:11.652Z,0
2017-04-10T20:48:31.792Z,0
2017-04-10T20:49:14.952Z,0
2017-04-10T20:49:57.063Z,0
2017-04-10T20:50:37.554Z,0
2017-04-10T20:51:18.004Z,0
2017-04-10T20:51:58.591Z,0
2017-04-10T20:52:39.106Z,0
2017-04-10T20:53:22.069Z,0
2017-04-10T20:54:02.391Z,0
2017-04-10T20:54:42.800Z,0
2017-04-10T20:55:24.108Z,0
2017-04-10T20:56:04.671Z,0
2017-04-10T20:58:42.972Z,0
2017-04-10T20:59:23.374Z,0
2017-04-10T21:01:37.166Z,0
2017-04-10T21:02:20.080Z,0
2017-04-10T21:03:01.344Z,0
2017-04-10T21:03:42.513Z,0
2017-04-10T21:04:22.997Z,0
2017-04-10T21:05:03.581Z,0
2017-04-10T21:05:44.931Z,0
2017-04-10T21:06:25.295Z,0
2017-04-10T21:07:05.710Z,0
2017-04-10T21:07:47.575Z,0
2017-04-10T21:08:28.397Z,0
2017-04-10T21:09:12.514Z,0
2017-04-10T21:09:53.592Z,0
2017-04-10T21:10:34.841Z,0
2017-04-10T21:11:16.224Z,0
2017-04-10T21:11:57.511Z,0
2017-04-10T21:14:37.153Z,0
2017-04-10T21:15:17.575Z,0
2017-04-10T21:15:58.484Z,0
2017-04-10T21:16:38.916Z,0
2017-04-10T21:17:20.010Z,0
2017-04-10T21:18:00.439Z,0
2017-04-10T21:20:13.278Z,0
2017-04-10T21:20:58.393Z,0
2017-04-10T21:21:38.737Z,0
2017-04-10T21:22:20.556Z,0
2017-04-10T21:23:00.979Z,0
2017-04-10T21:23:42.583Z,0
2017-04-10T21:24:25.590Z,0
2017-04-10T21:25:06.009Z,0
2017-04-10T21:27:20.811Z,0
2017-04-10T21:28:01.254Z,0
2017-04-10T21:28:42.347Z,0
2017-04-10T21:29:24.631Z,0
2017-04-10T21:30:05.663Z,0
2017-04-10T21:30:46.149Z,0
2017-04-10T21:31:26.546Z,0
2017-04-10T21:32:12.532Z,0
2017-04-10T21:32:52.946Z,0
2017-04-10T21:33:34.278Z,0
2017-04-10T21:34:16.119Z,0
2017-04-10T21:34:56.881Z,0
2017-04-10T21:35:40.737Z,0
2017-04-10T21:36:21.803Z,0
2017-04-10T21:37:06.645Z,0
2017-04-10T21:37:47.912Z,0
2017-04-10T21:38:34.805Z,0
2017-04-10T21:39:17.894Z,0
2017-04-10T21:40:04.314Z,0
2017-04-10T21:40:45.850Z,0
2017-04-10T21:43:32.823Z,0
2017-04-10T21:44:15.621Z,0
2017-04-10T21:44:57.918Z,0
2017-04-10T21:45:39.378Z,0
2017-04-10T21:46:21.012Z,0
2017-04-10T21:47:02.125Z,0
2017-04-10T21:47:44.648Z,0
2017-04-10T21:48:27.319Z,0
2017-04-10T21:49:10.461Z,0
2017-04-10T21:49:53.015Z,0
2017-04-10T21:50:33.831Z,0
2017-04-10T21:51:15.177Z,0
2017-04-10T21:53:37.916Z,0
2017-04-10T21:54:20.040Z,0
2017-04-10T21:55:01.543Z,0
2017-04-10T21:55:44.720Z,0
2017-04-10T21:56:25.731Z,0
2017-04-10T21:57:08.393Z,0
2017-04-10T21:57:50.353Z,0
2017-04-10T21:58:31.563Z,0
2017-04-10T21:59:23.710Z,0
2017-04-10T22:00:04.801Z,0
2017-04-10T22:00:46.185Z,0
2017-04-10T22:01:26.605Z,0
2017-04-10T22:02:07.016Z,0
2017-04-10T22:06:03.174Z,0
2017-04-10T22:06:44.236Z,0
2017-04-10T22:07:24.639Z,0
2017-04-10T22:08:05.647Z,0
2017-04-10T22:08:46.087Z,0
2017-04-10T22:09:26.583Z,0
2017-04-10T22:10:07.762Z,0
2017-04-10T22:10:48.216Z,0
2017-04-10T22:13:21.938Z,0
2017-04-10T22:14:02.337Z,0
2017-04-10T22:14:43.483Z,0
2017-04-10T22:15:23.882Z,0
2017-04-10T22:16:04.854Z,0
2017-04-10T22:16:46.106Z,0
2017-04-10T22:17:26.523Z,0
2017-04-10T22:18:06.942Z,0
2017-04-10T22:18:47.368Z,0
2017-04-10T22:19:28.669Z,0
2017-04-10T22:20:09.089Z,0
2017-04-10T22:20:51.272Z,0
2017-04-10T22:21:31.731Z,0
2017-04-10T22:22:12.188Z,0
2017-04-10T22:22:53.176Z,0
2017-04-10T22:25:33.317Z,0
2017-04-10T22:26:16.117Z,0
2017-04-10T22:26:56.603Z,0
2017-04-10T22:27:37.943Z,0
2017-04-10T22:28:19.210Z,0
2017-04-10T22:28:59.609Z,0
2017-04-10T22:29:40.104Z,0
2017-04-10T22:30:20.469Z,0
2017-04-10T22:31:01.815Z,0
2017-04-10T22:31:42.802Z,0
2017-04-10T22:32:23.689Z,0
2017-04-10T22:33:04.108Z,0
2017-04-10T22:33:44.538Z,0
2017-04-10T22:34:27.411Z,0
2017-04-10T22:35:09.225Z,0
2017-04-10T22:35:49.644Z,0
2017-04-10T22:36:33.007Z,0
2017-04-10T22:37:15.374Z,0
2017-04-10T22:37:57.348Z,0
2017-04-10T22:38:38.064Z,0
2017-04-10T22:39:18.380Z,0
2017-04-10T22:40:01.213Z,0
2017-04-10T22:40:41.618Z,0
2017-04-10T22:41:23.137Z,0
2017-04-10T22:42:06.357Z,0
2017-04-10T22:42:47.750Z,0
2017-04-10T22:43:28.966Z,0
2017-04-10T22:44:09.402Z,0
2017-04-10T22:44:49.894Z,0
2017-04-10T22:45:30.288Z,0
2017-04-10T22:46:10.717Z,0
2017-04-10T22:46:51.114Z,0
2017-04-10T22:47:31.546Z,0
2017-04-10T22:48:11.927Z,0
2017-04-10T22:48:52.412Z,0
2017-04-10T22:49:32.842Z,0
2017-04-10T22:50:13.268Z,0
2017-04-10T22:50:53.695Z,0
2017-04-10T22:51:34.130Z,0
2017-04-10T22:52:16.348Z,0
2017-04-10T22:52:56.766Z,0
2017-04-10T22:53:38.706Z,0
2017-04-10T22:54:19.163Z,0
2017-04-10T22:54:59.589Z,0
2017-04-10T22:55:41.646Z,0
2017-04-10T22:56:23.995Z,0
2017-04-10T22:57:06.644Z,0
2017-04-10T22:57:48.907Z,0
2017-04-10T22:58:30.840Z,0
2017-04-10T22:59:11.290Z,0
2017-04-10T22:59:51.688Z,0
2017-04-10T23:02:20.025Z,0
2017-04-10T23:03:00.456Z,0
2017-04-10T23:03:40.856Z,0
2017-04-10T23:04:21.969Z,0
2017-04-10T23:05:02.412Z,0
2017-04-10T23:07:32.639Z,0
2017-04-10T23:08:13.091Z,0
2017-04-10T23:08:54.305Z,0
2017-04-10T23:11:34.517Z,0
2017-04-10T23:12:14.942Z,0
2017-04-10T23:12:55.922Z,0
2017-04-10T23:13:36.394Z,0
2017-04-10T23:14:18.173Z,0
2017-04-10T23:14:58.610Z,0
2017-04-10T23:15:40.004Z,0
2017-04-10T23:16:20.469Z,0
2017-04-10T23:17:01.506Z,0
2017-04-10T23:17:42.823Z,0
2017-04-10T23:18:23.260Z,0
2017-04-10T23:19:03.683Z,0
2017-04-10T23:19:44.133Z,0
2017-04-10T23:20:24.548Z,0
2017-04-10T23:21:04.980Z,0
2017-04-10T23:21:45.374Z,0
2017-04-10T23:22:25.792Z,0
2017-04-10T23:23:06.209Z,0
2017-04-10T23:25:19.038Z,0
2017-04-10T23:25:59.491Z,0
2017-04-10T23:26:39.889Z,0
2017-04-10T23:27:20.317Z,0
2017-04-10T23:28:00.694Z,0
2017-04-10T23:28:41.117Z,0
2017-04-10T23:29:21.512Z,0
2017-04-10T23:30:01.959Z,0
2017-04-10T23:30:42.384Z,0
2017-04-10T23:31:22.768Z,0
2017-04-10T23:32:03.198Z,0
2017-04-10T23:32:43.640Z,0
2017-04-10T23:33:24.026Z,0
2017-04-10T23:34:04.453Z,0
2017-04-10T23:34:46.855Z,0
2017-04-10T23:35:27.272Z,0
2017-04-10T23:36:07.683Z,0
2017-04-10T23:36:48.084Z,0
2017-04-10T23:37:28.519Z,0
2017-04-10T23:38:08.928Z,0
2017-04-10T23:38:49.338Z,0
2017-04-10T23:39:29.780Z,0
2017-04-10T23:40:10.125Z,0
2017-04-10T23:40:50.570Z,0
2017-04-10T23:43:18.798Z,0
2017-04-10T23:43:59.246Z,0
2017-04-10T23:44:39.669Z,0
2017-04-10T23:45:20.090Z,0
2017-04-10T23:46:00.512Z,0
2017-04-10T23:46:41.568Z,0
2017-04-10T23:48:59.533Z,0
2017-04-10T23:49:40.757Z,0
2017-04-10T23:50:21.928Z,0
2017-04-10T23:51:03.334Z,0
2017-04-10T23:51:43.793Z,0
2017-04-10T23:52:24.205Z,0
2017-04-10T23:53:04.637Z,0
2017-04-10T23:53:45.833Z,0
2017-04-10T23:55:59.397Z,0
2017-04-10T23:56:39.817Z,0
2017-04-10T23:57:20.254Z,0
2017-04-10T23:58:00.664Z,0
2017-04-10T23:58:41.761Z,0
2017-04-10T23:59:22.774Z,0
